Time;durP1;ratioP1;P1;durP2;ratioP2;P2;SDS_P1;SDS_P2;PMS_P1;PMS_P2;Temp;Humidity;BMP_temperature;BMP_pressure;BME280_temperature;BME280_humidity;BME280_pressure;Samples;Min_cycle;Max_cycle;Signal;HPM_P1;HPM_P2
2022/03/02 00:01:04;;;;;;;7.67;6.97;;;4.00;99.90;;;;;;5005654;28;20216;-77
2022/03/02 00:03:31;;;;;;;7.73;6.60;;;4.00;99.90;;;;;;5021875;28;20201;-77
2022/03/02 00:05:58;;;;;;;9.57;6.87;;;4.00;99.90;;;;;;5005693;28;20214;-77
2022/03/02 00:08:24;;;;;;;9.10;6.90;;;4.00;99.90;;;;;;5008619;28;20718;-77
2022/03/02 00:10:51;;;;;;;9.23;7.17;;;4.00;99.90;;;;;;4996370;28;20243;-77
2022/03/02 00:13:18;;;;;;;10.43;7.33;;;3.90;99.90;;;;;;5017339;28;20233;-77
2022/03/02 00:15:45;;;;;;;8.07;7.27;;;3.90;99.90;;;;;;5009618;28;20206;-77
2022/03/02 00:18:13;;;;;;;7.87;7.07;;;3.90;99.90;;;;;;5049055;28;20214;-77
2022/03/02 00:20:40;;;;;;;8.10;7.30;;;3.90;99.90;;;;;;5066610;28;20214;-77
2022/03/02 00:23:07;;;;;;;9.90;7.20;;;3.80;99.90;;;;;;5018203;28;20213;-77
2022/03/02 00:25:34;;;;;;;10.77;7.27;;;3.80;99.90;;;;;;5003805;28;20725;-77
2022/03/02 00:28:01;;;;;;;10.33;7.13;;;3.80;99.90;;;;;;5029290;28;20285;-77
2022/03/02 00:30:28;;;;;;;8.60;6.90;;;3.80;99.90;;;;;;5013481;28;20271;-77
2022/03/02 00:32:55;;;;;;;8.23;7.20;;;3.80;99.90;;;;;;5015033;28;20329;-77
2022/03/02 00:35:23;;;;;;;8.70;6.73;;;3.90;99.90;;;;;;5007340;28;20206;-77
2022/03/02 00:37:50;;;;;;;9.17;7.23;;;3.90;99.90;;;;;;5011054;28;20263;-77
2022/03/02 00:40:17;;;;;;;8.17;6.93;;;3.90;99.90;;;;;;5006762;28;20239;-77
2022/03/02 00:42:44;;;;;;;9.37;7.23;;;3.90;99.90;;;;;;5014149;28;20205;-82
2022/03/02 00:45:11;;;;;;;8.90;7.17;;;3.90;99.90;;;;;;5009882;28;20225;-82
2022/03/02 00:47:38;;;;;;;10.03;7.40;;;3.90;99.90;;;;;;5012037;28;20263;-77
2022/03/02 00:50:06;;;;;;;9.63;7.50;;;3.80;99.90;;;;;;5008196;28;20615;-77
2022/03/02 00:52:35;;;;;;;11.43;7.80;;;3.70;99.90;;;;;;5041902;28;20232;-79
2022/03/02 00:55:03;;;;;;;8.40;7.30;;;3.70;99.90;;;;;;5004902;28;20320;-78
2022/03/02 00:57:30;;;;;;;9.97;6.67;;;3.60;99.90;;;;;;5017570;28;20264;-78
2022/03/02 00:59:57;;;;;;;8.87;6.87;;;3.60;99.90;;;;;;5021117;28;20571;-75
2022/03/02 01:02:24;;;;;;;9.67;6.93;;;3.60;99.90;;;;;;5004787;28;20210;-76
2022/03/02 01:04:50;;;;;;;9.23;7.53;;;3.50;99.90;;;;;;5013941;28;20221;-76
2022/03/02 01:07:17;;;;;;;9.33;6.90;;;3.60;99.90;;;;;;5019387;28;20283;-76
2022/03/02 01:09:45;;;;;;;11.47;7.60;;;3.60;99.90;;;;;;5014004;28;20262;-75
2022/03/02 01:12:12;;;;;;;8.90;7.03;;;3.60;99.90;;;;;;5084402;28;20203;-76
2022/03/02 01:14:39;;;;;;;8.73;7.50;;;3.50;99.90;;;;;;5014101;28;20222;-76
2022/03/02 01:17:06;;;;;;;9.10;7.53;;;3.50;99.90;;;;;;5007724;28;20255;-76
2022/03/02 01:19:33;;;;;;;9.60;8.33;;;3.50;99.90;;;;;;5007359;28;20214;-76
2022/03/02 01:21:59;;;;;;;10.47;8.50;;;3.50;99.90;;;;;;5007544;28;20213;-77
2022/03/02 01:24:26;;;;;;;12.40;8.33;;;3.40;99.90;;;;;;5004793;28;20271;-76
2022/03/02 01:26:54;;;;;;;9.83;7.90;;;3.40;99.90;;;;;;5085905;28;20210;-77
2022/03/02 01:29:21;;;;;;;8.70;7.47;;;3.30;99.90;;;;;;5019228;28;20217;-77
2022/03/02 01:31:47;;;;;;;11.70;8.30;;;3.40;99.90;;;;;;5014380;28;20289;-76
2022/03/02 01:34:14;;;;;;;8.20;7.37;;;3.40;99.90;;;;;;5010629;28;20790;-77
2022/03/02 01:36:40;;;;;;;10.33;7.80;;;3.40;99.90;;;;;;5004669;28;20250;-77
2022/03/02 01:39:07;;;;;;;10.20;7.70;;;3.30;99.90;;;;;;5024874;28;20243;-77
2022/03/02 01:41:34;;;;;;;11.50;7.70;;;3.30;99.90;;;;;;5010371;28;20667;-77
2022/03/02 01:44:02;;;;;;;9.83;7.83;;;3.30;99.90;;;;;;5015839;28;20285;-77
2022/03/02 01:46:30;;;;;;;10.43;7.37;;;3.30;99.90;;;;;;5096492;28;20202;-77
2022/03/02 01:48:57;;;;;;;8.93;6.83;;;3.40;99.90;;;;;;5013716;28;20220;-77
2022/03/02 01:51:25;;;;;;;10.63;8.13;;;3.40;99.90;;;;;;4989242;28;20210;-77
2022/03/02 01:53:52;;;;;;;10.90;7.53;;;3.40;99.90;;;;;;5022658;28;20245;-77
2022/03/02 01:56:19;;;;;;;10.27;7.37;;;3.40;99.90;;;;;;5006190;28;20291;-77
2022/03/02 01:58:47;;;;;;;8.73;7.27;;;3.50;99.90;;;;;;5021416;28;20747;-77
2022/03/02 02:01:15;;;;;;;9.60;7.53;;;3.50;99.90;;;;;;5009385;28;20216;-77
2022/03/02 02:03:42;;;;;;;8.30;7.27;;;3.50;99.90;;;;;;5013480;28;20587;-77
2022/03/02 02:06:09;;;;;;;10.10;8.30;;;3.40;99.90;;;;;;5091624;28;20263;-77
2022/03/02 02:08:36;;;;;;;10.67;7.70;;;3.40;99.90;;;;;;5013268;28;20210;-77
2022/03/02 02:11:05;;;;;;;12.57;8.30;;;3.40;99.90;;;;;;4985142;28;20206;-77
2022/03/02 02:13:34;;;;;;;10.73;8.20;;;3.40;99.90;;;;;;5015983;28;20240;-74
2022/03/02 02:16:01;;;;;;;11.50;8.03;;;3.40;99.90;;;;;;4999361;28;20206;-73
2022/03/02 02:18:32;;;;;;;10.93;7.77;;;3.40;99.90;;;;;;5011376;28;20589;-73
2022/03/02 02:21:05;;;;;;;11.03;7.80;;;3.40;99.90;;;;;;4990639;28;20702;-73
2022/03/02 02:23:32;;;;;;;11.73;7.53;;;3.30;99.90;;;;;;5011323;28;20202;-73
2022/03/02 02:25:59;;;;;;;11.00;8.20;;;3.30;99.90;;;;;;5003903;28;20653;-80
2022/03/02 02:28:27;;;;;;;10.97;8.37;;;3.20;99.90;;;;;;5043349;28;20194;-80
2022/03/02 02:30:56;;;;;;;10.00;7.93;;;3.20;99.90;;;;;;5035922;28;20210;-80
2022/03/02 02:33:23;;;;;;;10.37;8.13;;;3.10;99.90;;;;;;5013378;28;20229;-80
2022/03/02 02:35:50;;;;;;;9.20;7.90;;;3.10;99.90;;;;;;5002442;28;20586;-80
2022/03/02 02:38:20;;;;;;;10.37;7.87;;;3.10;99.90;;;;;;5027220;28;20213;-80
2022/03/02 02:40:47;;;;;;;11.67;8.27;;;3.10;99.90;;;;;;5015731;28;20198;-75
2022/03/02 02:43:15;;;;;;;10.17;7.83;;;3.10;99.90;;;;;;5046040;28;20206;-75
2022/03/02 02:45:42;;;;;;;10.57;8.10;;;3.00;99.90;;;;;;5036216;28;20222;-75
2022/03/02 02:48:09;;;;;;;11.33;7.67;;;3.00;99.90;;;;;;5019024;28;20307;-78
2022/03/02 02:50:37;;;;;;;10.03;7.67;;;3.00;99.90;;;;;;5015390;28;20682;-78
2022/03/02 02:53:08;;;;;;;11.43;8.33;;;3.00;99.90;;;;;;5010536;28;20220;-78
2022/03/02 02:55:37;;;;;;;8.67;7.73;;;3.10;99.90;;;;;;5003091;28;20233;-78
2022/03/02 02:58:05;;;;;;;13.63;8.23;;;3.10;99.90;;;;;;5015378;28;20202;-78
2022/03/02 03:00:35;;;;;;;11.23;8.03;;;3.10;99.90;;;;;;5009765;28;20206;-77
2022/03/02 03:03:03;;;;;;;9.30;7.90;;;3.10;99.90;;;;;;5062388;28;20198;-77
2022/03/02 03:05:32;;;;;;;9.93;8.53;;;3.10;99.90;;;;;;5036683;28;20694;-77
2022/03/02 03:08:00;;;;;;;10.77;8.57;;;3.10;99.90;;;;;;5014367;28;20233;-76
2022/03/02 03:10:27;;;;;;;11.90;7.63;;;3.10;99.90;;;;;;5013417;28;20647;-76
2022/03/02 03:12:55;;;;;;;11.70;8.33;;;3.10;99.90;;;;;;5066346;28;20592;-77
2022/03/02 03:15:23;;;;;;;10.90;8.30;;;3.10;99.90;;;;;;5018002;28;20213;-77
2022/03/02 03:17:51;;;;;;;11.63;8.13;;;3.10;99.90;;;;;;5017019;28;20267;-76
2022/03/02 03:20:20;;;;;;;11.33;8.83;;;3.10;99.90;;;;;;5015667;28;20266;-76
2022/03/02 03:22:47;;;;;;;11.90;9.20;;;3.10;99.90;;;;;;5016668;28;20216;-77
2022/03/02 03:25:14;;;;;;;13.17;9.23;;;3.10;99.90;;;;;;5015207;28;20338;-76
2022/03/02 03:27:43;;;;;;;14.77;9.87;;;3.10;99.90;;;;;;5012089;28;20202;-77
2022/03/02 03:30:13;;;;;;;15.50;9.90;;;3.10;99.90;;;;;;5026629;28;20213;-76
2022/03/02 03:32:40;;;;;;;13.07;9.67;;;3.10;99.90;;;;;;5085325;28;20255;-77
2022/03/02 03:35:09;;;;;;;14.50;9.27;;;3.00;99.90;;;;;;5030244;28;20240;-77
2022/03/02 03:37:35;;;;;;;15.20;9.30;;;3.00;99.90;;;;;;5012720;28;20213;-77
2022/03/02 03:40:03;;;;;;;12.53;8.97;;;2.90;99.90;;;;;;5022633;28;20687;-77
2022/03/02 03:42:29;;;;;;;13.17;9.13;;;2.90;99.90;;;;;;5012416;28;20294;-77
2022/03/02 03:44:56;;;;;;;13.33;8.83;;;2.90;99.90;;;;;;5027000;28;20213;-76
2022/03/02 03:47:24;;;;;;;14.30;9.50;;;3.00;99.90;;;;;;5014415;28;20292;-76
2022/03/02 03:49:51;;;;;;;9.87;8.40;;;3.00;99.90;;;;;;5024291;28;20246;-76
2022/03/02 03:52:18;;;;;;;13.43;9.13;;;3.00;99.90;;;;;;4993163;28;20216;-83
2022/03/02 03:54:44;;;;;;;10.97;8.57;;;2.90;99.90;;;;;;5031921;28;20238;-80
2022/03/02 03:57:11;;;;;;;10.67;8.30;;;2.90;99.90;;;;;;5010821;28;20202;-80
2022/03/02 03:59:38;;;;;;;10.90;8.60;;;2.90;99.90;;;;;;5030600;28;20285;-80
2022/03/02 04:02:05;;;;;;;11.83;8.27;;;3.00;99.90;;;;;;5020084;28;20278;-75
2022/03/02 04:04:33;;;;;;;11.43;8.87;;;3.00;99.90;;;;;;5025697;28;20214;-76
2022/03/02 04:07:00;;;;;;;10.43;8.03;;;3.00;99.90;;;;;;5070446;28;20208;-77
2022/03/02 04:09:26;;;;;;;10.93;8.60;;;3.00;99.90;;;;;;5026039;28;20209;-78
2022/03/02 04:11:53;;;;;;;13.33;8.33;;;3.00;99.90;;;;;;5016868;28;20210;-78
2022/03/02 04:14:20;;;;;;;12.07;8.90;;;2.90;99.90;;;;;;5023898;28;20290;-77
2022/03/02 04:16:46;;;;;;;10.77;8.57;;;2.90;99.90;;;;;;4998431;28;20280;-78
2022/03/02 04:19:13;;;;;;;12.40;8.40;;;3.00;99.90;;;;;;5008452;28;20726;-77
2022/03/02 04:21:41;;;;;;;9.27;7.97;;;3.00;99.90;;;;;;5085343;28;20216;-76
2022/03/02 04:24:08;;;;;;;10.90;8.00;;;2.90;99.90;;;;;;5007093;28;20318;-77
2022/03/02 04:26:35;;;;;;;11.90;8.27;;;2.90;99.90;;;;;;5001223;28;20205;-76
2022/03/02 04:29:02;;;;;;;13.17;8.83;;;2.90;99.90;;;;;;5006970;28;20254;-76
2022/03/02 04:31:28;;;;;;;17.77;8.50;;;2.80;99.90;;;;;;4988257;28;20216;-76
2022/03/02 04:33:55;;;;;;;12.20;8.53;;;2.80;99.90;;;;;;5008550;28;20230;-77
2022/03/02 04:36:22;;;;;;;12.23;8.10;;;2.80;99.90;;;;;;5000193;28;20689;-77
2022/03/02 04:38:50;;;;;;;11.00;8.00;;;2.70;99.90;;;;;;5007637;28;20258;-77
2022/03/02 04:41:17;;;;;;;10.00;7.87;;;2.80;99.90;;;;;;5000154;28;20253;-77
2022/03/02 04:43:45;;;;;;;13.00;8.63;;;2.70;99.90;;;;;;5024044;28;20660;-77
2022/03/02 04:46:11;;;;;;;11.40;8.37;;;2.70;99.90;;;;;;5023772;28;20202;-77
2022/03/02 04:48:38;;;;;;;12.97;8.43;;;2.70;99.90;;;;;;5027414;28;20210;-77
2022/03/02 04:51:05;;;;;;;11.03;8.50;;;2.60;99.90;;;;;;5064526;27;20221;-77
2022/03/02 04:53:31;;;;;;;13.00;8.87;;;2.70;99.90;;;;;;5008167;28;20606;-77
2022/03/02 04:55:59;;;;;;;14.17;8.83;;;2.60;99.90;;;;;;5000705;28;20234;-77
2022/03/02 04:58:26;;;;;;;10.17;8.07;;;2.60;99.90;;;;;;5009905;28;20210;-77
2022/03/02 05:00:53;;;;;;;9.83;8.43;;;2.60;99.90;;;;;;5002653;28;20228;-78
2022/03/02 05:03:20;;;;;;;12.97;8.83;;;2.60;99.90;;;;;;5012267;28;20573;-80
2022/03/02 05:05:47;;;;;;;10.73;8.63;;;2.70;99.90;;;;;;5006748;28;20225;-80
2022/03/02 05:08:13;;;;;;;10.70;8.10;;;2.70;99.90;;;;;;5017310;28;20724;-80
2022/03/02 05:10:40;;;;;;;12.93;8.43;;;2.70;99.90;;;;;;5006740;28;20212;-80
2022/03/02 05:13:08;;;;;;;12.93;9.37;;;2.80;99.90;;;;;;5010699;28;20201;-80
2022/03/02 05:15:35;;;;;;;12.83;9.13;;;2.80;99.90;;;;;;5012633;28;20238;-79
2022/03/02 05:18:01;;;;;;;12.97;9.17;;;2.80;99.90;;;;;;5010948;28;20235;-79
2022/03/02 05:20:28;;;;;;;12.40;9.10;;;2.80;99.90;;;;;;5000720;28;20600;-79
2022/03/02 05:22:55;;;;;;;11.73;9.37;;;2.80;99.90;;;;;;5012763;28;20205;-80
2022/03/02 05:25:24;;;;;;;10.97;8.80;;;2.90;99.90;;;;;;4999954;28;20366;-79
2022/03/02 05:27:51;;;;;;;10.87;8.80;;;2.80;99.90;;;;;;5032523;28;20293;-80
2022/03/02 05:30:20;;;;;;;12.80;9.67;;;2.70;99.90;;;;;;5002557;28;20294;-79
2022/03/02 05:32:48;;;;;;;11.67;8.90;;;2.70;99.90;;;;;;5029907;28;20213;-80
2022/03/02 05:35:15;;;;;;;11.77;8.83;;;2.70;99.90;;;;;;5002204;28;20245;-79
2022/03/02 05:37:43;;;;;;;11.80;8.87;;;2.70;99.90;;;;;;5041506;28;20263;-80
2022/03/02 05:40:12;;;;;;;12.77;9.10;;;2.80;99.90;;;;;;5002685;28;20209;-80
2022/03/02 05:42:38;;;;;;;11.67;8.60;;;2.70;99.90;;;;;;5015671;28;20209;-79
2022/03/02 05:45:07;;;;;;;13.67;9.33;;;2.70;99.90;;;;;;5013361;28;20218;-79
2022/03/02 05:47:35;;;;;;;11.80;9.17;;;2.80;99.90;;;;;;5015999;28;20259;-79
2022/03/02 05:50:02;;;;;;;12.60;9.70;;;2.80;99.90;;;;;;5009614;28;20702;-80
2022/03/02 05:52:29;;;;;;;14.40;9.57;;;2.80;99.90;;;;;;5010464;28;20213;-80
2022/03/02 05:54:56;;;;;;;12.60;9.57;;;2.80;99.90;;;;;;5004602;28;20233;-79
2022/03/02 05:57:23;;;;;;;12.27;9.03;;;2.80;99.90;;;;;;5009772;28;20252;-80
2022/03/02 05:59:49;;;;;;;11.73;8.93;;;2.90;99.90;;;;;;5011848;28;20202;-79
2022/03/02 06:02:16;;;;;;;14.67;9.90;;;2.80;99.90;;;;;;5021048;28;20839;-79
2022/03/02 06:04:46;;;;;;;13.67;9.20;;;2.70;99.90;;;;;;5018919;28;20217;-79
2022/03/02 06:07:13;;;;;;;14.40;9.90;;;2.70;99.90;;;;;;5009835;28;20289;-80
2022/03/02 06:09:40;;;;;;;11.60;9.63;;;2.70;99.90;;;;;;5009155;28;20251;-81
2022/03/02 06:12:08;;;;;;;15.57;10.30;;;2.80;99.90;;;;;;5007295;28;20209;-81
2022/03/02 06:14:35;;;;;;;12.97;9.73;;;2.80;99.90;;;;;;5003734;28;20238;-80
2022/03/02 06:17:03;;;;;;;12.07;9.60;;;2.80;99.90;;;;;;5006858;28;20252;-80
2022/03/02 06:19:30;;;;;;;15.60;10.13;;;2.80;99.90;;;;;;5003137;28;20206;-80
2022/03/02 06:22:02;;;;;;;14.27;10.53;;;2.70;99.90;;;;;;5007895;28;20209;-80
2022/03/02 06:24:29;;;;;;;13.50;10.13;;;2.70;99.90;;;;;;5007862;28;20233;-80
2022/03/02 06:26:56;;;;;;;13.70;10.37;;;2.70;99.90;;;;;;5008516;28;20229;-79
2022/03/02 06:29:23;;;;;;;12.10;9.70;;;2.60;99.90;;;;;;5020627;28;20680;-79
2022/03/02 06:31:50;;;;;;;17.30;11.30;;;2.70;99.90;;;;;;5003407;28;20279;-79
2022/03/02 06:34:16;;;;;;;14.63;10.30;;;2.60;99.90;;;;;;5014797;28;20216;-79
2022/03/02 06:36:45;;;;;;;14.37;10.63;;;2.70;99.90;;;;;;4998468;28;20262;-79
2022/03/02 06:39:13;;;;;;;14.23;10.40;;;2.70;99.90;;;;;;5012871;28;20245;-79
2022/03/02 06:41:49;;;;;;;14.80;10.60;;;2.60;99.90;;;;;;5007198;28;20566;-79
2022/03/02 06:44:27;;;;;;;17.10;11.20;;;2.60;99.90;;;;;;5007192;28;20635;-79
2022/03/02 06:47:01;;;;;;;15.33;11.03;;;2.60;99.90;;;;;;4994270;28;20233;-80
2022/03/02 06:49:35;;;;;;;15.83;11.33;;;2.60;99.90;;;;;;5010480;28;20327;-80
2022/03/02 06:52:04;;;;;;;13.87;10.43;;;2.50;99.90;;;;;;5004083;28;20206;-79
2022/03/02 06:54:33;;;;;;;18.00;11.83;;;2.50;99.90;;;;;;5014536;28;20226;-79
2022/03/02 06:57:04;;;;;;;15.03;11.27;;;2.50;99.90;;;;;;4999720;28;20229;-80
2022/03/02 06:59:42;;;;;;;16.83;11.03;;;2.50;99.90;;;;;;5015399;28;20206;-79
2022/03/02 07:02:10;;;;;;;19.27;12.50;;;2.60;99.90;;;;;;5016725;28;20218;-79
2022/03/02 07:04:40;;;;;;;17.00;11.23;;;2.60;99.90;;;;;;5016241;28;20218;-80
2022/03/02 07:07:08;;;;;;;14.27;10.93;;;2.60;99.90;;;;;;5004193;28;20258;-79
2022/03/02 07:09:37;;;;;;;15.70;11.00;;;2.70;99.90;;;;;;5015107;28;20201;-80
2022/03/02 07:12:06;;;;;;;16.03;10.60;;;2.70;99.90;;;;;;5001307;28;20604;-79
2022/03/02 07:14:35;;;;;;;16.83;10.90;;;2.70;99.90;;;;;;5023998;28;20317;-80
2022/03/02 07:17:03;;;;;;;16.30;11.63;;;2.80;99.90;;;;;;5008777;28;20577;-80
2022/03/02 07:19:30;;;;;;;17.33;11.90;;;2.70;99.90;;;;;;5013603;28;20206;-80
2022/03/02 07:22:00;;;;;;;17.90;11.87;;;2.70;99.90;;;;;;5005403;28;20209;-81
2022/03/02 07:24:33;;;;;;;14.63;11.07;;;2.80;99.90;;;;;;5027599;28;20252;-80
2022/03/02 07:27:01;;;;;;;15.80;11.27;;;2.80;99.90;;;;;;5007410;28;20210;-79
2022/03/02 07:29:28;;;;;;;16.77;11.63;;;2.80;99.90;;;;;;5014236;28;20742;-79
2022/03/02 07:31:57;;;;;;;15.73;11.63;;;2.80;99.90;;;;;;5006344;28;20214;-78
2022/03/02 07:34:27;;;;;;;16.70;12.13;;;2.90;99.90;;;;;;5014545;28;20210;-79
2022/03/02 07:36:55;;;;;;;19.37;12.27;;;2.90;99.90;;;;;;5023897;28;20664;-79
2022/03/02 07:39:22;;;;;;;18.10;11.57;;;2.90;99.90;;;;;;5015524;28;20238;-79
2022/03/02 07:41:49;;;;;;;15.20;11.73;;;2.90;99.90;;;;;;5017848;28;20583;-79
2022/03/02 07:44:18;;;;;;;17.37;12.13;;;2.90;99.90;;;;;;5012074;28;20349;-79
2022/03/02 07:46:45;;;;;;;17.37;12.40;;;3.00;99.90;;;;;;5011220;28;20300;-78
2022/03/02 07:49:12;;;;;;;20.70;12.40;;;3.00;99.90;;;;;;5079972;28;20263;-78
2022/03/02 07:51:40;;;;;;;18.40;12.37;;;3.00;99.90;;;;;;5017344;28;20202;-78
2022/03/02 07:54:08;;;;;;;16.67;12.23;;;3.10;99.90;;;;;;5004688;28;20624;-78
2022/03/02 07:56:35;;;;;;;18.67;13.00;;;3.10;99.90;;;;;;5017554;28;20258;-79
2022/03/02 07:59:05;;;;;;;19.80;12.40;;;3.20;99.90;;;;;;4998481;28;20235;-78
2022/03/02 08:01:36;;;;;;;17.50;11.70;;;3.20;99.90;;;;;;5021367;28;20216;-78
2022/03/02 08:04:05;;;;;;;18.13;12.27;;;3.20;99.90;;;;;;5076538;28;20209;-78
2022/03/02 08:06:35;;;;;;;20.77;12.70;;;3.30;99.90;;;;;;5008210;28;20214;-78
2022/03/02 08:09:03;;;;;;;18.30;12.43;;;3.30;99.90;;;;;;5005669;28;21058;-79
2022/03/02 08:11:31;;;;;;;18.90;12.63;;;3.40;99.90;;;;;;5026363;28;20205;-79
2022/03/02 08:13:59;;;;;;;18.80;12.80;;;3.50;99.90;;;;;;5004988;28;20287;-79
2022/03/02 08:16:27;;;;;;;16.80;12.60;;;3.60;99.90;;;;;;5009381;28;20237;-79
2022/03/02 08:18:56;;;;;;;17.47;12.37;;;3.70;99.90;;;;;;5000917;28;20217;-79
2022/03/02 08:21:23;;;;;;;19.90;12.40;;;3.70;99.90;;;;;;5011853;28;20728;-79
2022/03/02 08:23:52;;;;;;;19.50;12.20;;;3.80;99.90;;;;;;5002826;28;20229;-79
2022/03/02 08:26:20;;;;;;;20.37;13.73;;;3.90;99.90;;;;;;5040819;28;20209;-80
2022/03/02 08:28:48;;;;;;;18.67;13.40;;;3.90;99.90;;;;;;5010920;28;20687;-78
2022/03/02 08:31:15;;;;;;;17.87;12.67;;;4.00;99.90;;;;;;5020928;28;20209;-78
2022/03/02 08:33:42;;;;;;;17.97;13.33;;;4.10;99.90;;;;;;5015494;28;20685;-79
2022/03/02 08:36:12;;;;;;;17.27;12.27;;;4.10;99.90;;;;;;5059061;28;20230;-79
2022/03/02 08:38:42;;;;;;;16.80;13.07;;;4.20;99.90;;;;;;5006559;28;20306;-78
2022/03/02 08:41:10;;;;;;;17.73;12.47;;;4.20;99.90;;;;;;5018768;28;20218;-78
2022/03/02 08:43:37;;;;;;;18.93;13.27;;;4.20;99.90;;;;;;5011899;28;20213;-80
2022/03/02 08:46:07;;;;;;;19.67;13.33;;;4.20;99.90;;;;;;5008201;28;20198;-79
2022/03/02 08:48:35;;;;;;;22.70;13.83;;;4.20;99.90;;;;;;5016731;28;20215;-78
2022/03/02 08:51:05;;;;;;;16.93;13.00;;;4.30;99.90;;;;;;5025518;28;20563;-78
2022/03/02 08:53:34;;;;;;;20.50;13.80;;;4.30;99.90;;;;;;5004264;28;20206;-79
2022/03/02 08:56:06;;;;;;;18.17;13.20;;;4.30;99.90;;;;;;4984724;28;1068503;-78
2022/03/02 08:58:33;;;;;;;20.67;13.97;;;4.30;99.90;;;;;;5014659;28;20217;-79
2022/03/02 09:01:01;;;;;;;23.47;13.43;;;4.40;99.90;;;;;;5016186;28;20735;-79
2022/03/02 09:03:32;;;;;;;22.33;12.60;;;4.40;99.90;;;;;;5020618;28;20219;-79
2022/03/02 09:05:58;;;;;;;20.53;13.73;;;4.40;99.90;;;;;;5012259;28;20217;-79
2022/03/02 09:08:25;;;;;;;18.57;13.67;;;4.40;99.90;;;;;;5014030;28;20206;-79
2022/03/02 09:10:54;;;;;;;19.80;14.00;;;4.30;99.90;;;;;;5032486;28;20262;-79
2022/03/02 09:13:22;;;;;;;20.90;13.77;;;4.30;99.90;;;;;;5009972;28;20214;-79
2022/03/02 09:15:48;;;;;;;17.97;13.17;;;4.30;99.90;;;;;;5015546;28;20278;-79
2022/03/02 09:18:15;;;;;;;18.77;12.77;;;4.40;99.90;;;;;;5027285;28;20815;-79
2022/03/02 09:20:43;;;;;;;20.40;12.90;;;4.40;99.90;;;;;;5014729;28;20210;-78
2022/03/02 09:23:11;;;;;;;20.17;12.73;;;4.40;99.90;;;;;;5026499;28;20218;-79
2022/03/02 09:25:39;;;;;;;17.47;12.50;;;4.50;99.90;;;;;;5006490;28;20729;-78
2022/03/02 09:28:09;;;;;;;18.67;13.43;;;4.60;99.90;;;;;;5029725;28;20217;-78
2022/03/02 09:30:37;;;;;;;16.97;13.43;;;4.70;99.90;;;;;;5009715;28;20202;-78
2022/03/02 09:33:10;;;;;;;18.50;13.33;;;4.70;99.90;;;;;;5013124;28;20625;-78
2022/03/02 09:35:38;;;;;;;20.67;13.83;;;4.80;99.90;;;;;;5006718;28;20279;-79
2022/03/02 09:38:05;;;;;;;20.13;12.93;;;4.80;99.90;;;;;;5023412;28;20205;-78
2022/03/02 09:40:32;;;;;;;17.97;12.60;;;4.80;99.90;;;;;;4988756;28;20243;-78
2022/03/02 09:43:00;;;;;;;19.97;14.00;;;4.90;99.90;;;;;;5025521;28;20206;-79
2022/03/02 09:45:30;;;;;;;20.17;12.47;;;4.90;99.90;;;;;;4992436;28;20213;-79
2022/03/02 09:48:00;;;;;;;18.00;12.83;;;5.00;99.90;;;;;;5025388;28;20210;-78
2022/03/02 09:50:31;;;;;;;18.17;12.33;;;5.10;99.90;;;;;;5001745;28;20948;-79
2022/03/02 09:53:01;;;;;;;17.67;12.73;;;5.00;99.90;;;;;;5017975;28;20233;-78
2022/03/02 09:55:28;;;;;;;34.87;13.33;;;5.00;99.90;;;;;;5010081;28;20242;-78
2022/03/02 09:57:59;;;;;;;20.13;12.07;;;5.00;99.90;;;;;;5014686;28;20264;-78
2022/03/02 10:00:29;;;;;;;18.47;13.00;;;5.10;99.90;;;;;;5004799;28;20560;-79
2022/03/02 10:02:58;;;;;;;21.40;13.30;;;5.20;99.90;;;;;;5031711;28;20202;-78
2022/03/02 10:05:27;;;;;;;19.53;12.50;;;5.20;99.90;;;;;;5008436;28;20216;-78
2022/03/02 10:08:00;;;;;;;15.83;12.77;;;5.30;99.90;;;;;;5018969;28;20217;-79
2022/03/02 10:10:28;;;;;;;17.57;12.87;;;5.40;99.90;;;;;;5006730;28;20621;-78
2022/03/02 10:12:56;;;;;;;19.37;13.40;;;5.40;99.90;;;;;;5024314;28;20206;-78
2022/03/02 10:15:23;;;;;;;20.37;12.27;;;5.50;99.90;;;;;;5007990;28;20222;-78
2022/03/02 10:17:53;;;;;;;16.83;13.10;;;5.60;99.90;;;;;;5010736;28;20626;-79
2022/03/02 10:20:21;;;;;;;18.43;12.40;;;5.60;99.90;;;;;;5007360;28;20841;-78
2022/03/02 10:23:10;;;;;;;15.03;12.30;;;5.60;99.90;;;;;;5012970;28;20205;-78
2022/03/02 10:25:51;;;;;;;17.17;13.17;;;5.70;99.90;;;;;;5006356;28;20217;-78
2022/03/02 10:28:26;;;;;;;21.13;13.37;;;5.70;99.90;;;;;;5005522;28;20206;-78
2022/03/02 10:31:19;;;;;;;19.67;13.73;;;5.80;99.90;;;;;;5008796;28;20608;-78
2022/03/02 10:33:53;;;;;;;19.23;13.93;;;5.80;99.90;;;;;;5021192;28;20292;-78
2022/03/02 10:36:21;;;;;;;20.77;13.50;;;5.80;99.90;;;;;;5020041;28;20236;-78
2022/03/02 10:38:50;;;;;;;18.67;13.07;;;5.90;99.90;;;;;;5000729;28;20237;-78
2022/03/02 10:41:20;;;;;;;18.20;12.17;;;6.00;99.90;;;;;;5017025;28;20532;-78
2022/03/02 10:43:54;;;;;;;18.77;12.73;;;6.20;99.90;;;;;;5001182;28;20232;-78
2022/03/02 10:46:23;;;;;;;25.13;13.77;;;6.30;99.90;;;;;;5029107;28;20267;-78
2022/03/02 10:49:03;;;;;;;17.67;12.23;;;6.50;99.90;;;;;;4998685;28;20268;-78
2022/03/02 10:51:32;;;;;;;24.43;12.97;;;6.60;99.90;;;;;;5016306;28;20201;-78
2022/03/02 10:54:03;;;;;;;17.03;12.37;;;6.70;99.90;;;;;;5003218;28;20744;-78
2022/03/02 10:56:35;;;;;;;21.40;13.17;;;6.80;99.90;;;;;;5059060;28;20662;-78
2022/03/02 10:59:04;;;;;;;19.50;12.13;;;7.00;99.90;;;;;;5032857;28;20213;-78
2022/03/02 11:01:31;;;;;;;20.67;12.27;;;7.10;99.90;;;;;;5017558;28;20213;-78
2022/03/02 11:03:59;;;;;;;15.77;11.90;;;7.20;98.90;;;;;;5003537;28;20233;-78
2022/03/02 11:06:27;;;;;;;19.30;12.10;;;7.30;98.90;;;;;;5014930;28;20209;-79
2022/03/02 11:08:55;;;;;;;16.17;11.70;;;7.40;98.80;;;;;;5011256;28;20682;-79
2022/03/02 11:11:26;;;;;;;14.60;10.93;;;7.60;98.50;;;;;;5009376;28;20294;-79
2022/03/02 11:13:55;;;;;;;13.67;11.23;;;7.80;98.70;;;;;;5003444;28;20980;-78
2022/03/02 11:16:24;;;;;;;16.73;11.83;;;7.90;98.00;;;;;;5010554;28;20295;-78
2022/03/02 11:18:52;;;;;;;18.27;12.03;;;8.10;97.30;;;;;;5012138;28;20290;-79
2022/03/02 11:21:24;;;;;;;14.17;10.57;;;8.10;97.50;;;;;;5013817;28;20209;-78
2022/03/02 11:23:53;;;;;;;20.10;12.40;;;8.20;97.20;;;;;;5010684;28;20224;-78
2022/03/02 11:26:23;;;;;;;13.73;11.30;;;8.20;97.30;;;;;;5012793;28;20205;-79
2022/03/02 11:28:52;;;;;;;13.93;10.53;;;8.10;97.30;;;;;;5011797;28;20209;-78
2022/03/02 11:31:23;;;;;;;14.20;11.17;;;8.00;96.70;;;;;;5005701;28;20236;-78
2022/03/02 11:33:50;;;;;;;12.13;10.40;;;8.00;96.30;;;;;;5021474;28;20245;-78
2022/03/02 11:36:20;;;;;;;11.67;8.50;;;7.90;96.70;;;;;;5007696;28;20237;-78
2022/03/02 11:38:52;;;;;;;9.53;7.40;;;7.90;95.40;;;;;;5013683;28;20213;-78
2022/03/02 11:41:19;;;;;;;10.93;8.20;;;7.90;94.70;;;;;;4998138;28;20199;-78
2022/03/02 11:43:46;;;;;;;10.83;7.80;;;8.00;94.50;;;;;;5018269;28;20206;-78
2022/03/02 11:46:13;;;;;;;11.90;8.80;;;8.00;94.70;;;;;;4995480;28;20218;-78
2022/03/02 11:48:42;;;;;;;11.73;9.37;;;8.20;94.40;;;;;;5026709;28;20259;-78
2022/03/02 11:51:12;;;;;;;12.33;9.70;;;8.30;94.50;;;;;;5003670;28;20214;-78
2022/03/02 11:53:42;;;;;;;12.97;8.93;;;8.50;95.20;;;;;;5021293;28;20213;-78
2022/03/02 11:56:12;;;;;;;14.53;10.07;;;8.70;95.00;;;;;;5004464;28;20318;-78
2022/03/02 11:59:03;;;;;;;14.80;10.50;;;8.80;94.20;;;;;;5032234;28;20210;-78
2022/03/02 12:01:42;;;;;;;12.07;8.70;;;9.00;93.20;;;;;;5005165;28;20209;-78
2022/03/02 12:04:09;;;;;;;10.57;8.73;;;9.20;93.40;;;;;;5017256;28;20278;-79
2022/03/02 12:06:42;;;;;;;11.93;9.17;;;9.40;92.80;;;;;;5002428;28;20209;-79
2022/03/02 12:09:22;;;;;;;11.93;9.43;;;9.50;93.60;;;;;;5030712;28;20197;-79
2022/03/02 12:11:49;;;;;;;14.90;10.03;;;9.80;93.60;;;;;;5003060;28;20212;-79
2022/03/02 12:14:16;;;;;;;11.33;9.73;;;10.10;92.90;;;;;;5029826;28;20664;-78
2022/03/02 12:16:44;;;;;;;13.13;9.87;;;10.10;92.50;;;;;;5002306;28;20370;-78
2022/03/02 12:19:24;;;;;;;15.00;10.03;;;10.20;92.60;;;;;;5013413;28;20958;-76
2022/03/02 12:21:53;;;;;;;14.80;11.23;;;10.30;92.20;;;;;;5003697;28;20218;-76
2022/03/02 12:24:28;;;;;;;12.40;10.13;;;10.30;91.00;;;;;;5014574;28;20236;-76
2022/03/02 12:27:01;;;;;;;14.40;10.10;;;10.40;90.90;;;;;;5014068;28;20586;-76
2022/03/02 12:29:27;;;;;;;11.47;9.90;;;10.40;90.70;;;;;;5011199;28;20904;-76
2022/03/02 12:32:05;;;;;;;14.50;9.43;;;10.50;90.40;;;;;;5024120;28;20255;-76
2022/03/02 12:34:34;;;;;;;11.73;10.07;;;10.60;90.70;;;;;;4987864;28;20567;-76
2022/03/02 12:37:01;;;;;;;12.80;10.03;;;10.70;90.10;;;;;;5018516;28;20709;-76
2022/03/02 12:39:30;;;;;;;12.53;9.47;;;10.80;90.30;;;;;;4991896;28;20265;-76
2022/03/02 12:41:56;;;;;;;11.50;10.00;;;10.90;89.80;;;;;;5019951;28;20274;-77
2022/03/02 12:44:24;;;;;;;11.43;10.23;;;10.90;89.10;;;;;;5012557;28;20263;-76
2022/03/02 12:46:54;;;;;;;17.93;10.57;;;10.90;87.70;;;;;;4996041;28;20260;-76
2022/03/02 12:49:26;;;;;;;17.13;10.17;;;11.10;88.20;;;;;;4986605;28;20198;-76